sensor_id;sensor_type;location;lat;lon;timestamp;P1;durP1;ratioP1;P2;durP2;ratioP2
5801;SDS011;2927;49.366;8.530;2024-01-25T00:02:05;15.93;;;2.33;;
5801;SDS011;2927;49.366;8.530;2024-01-25T00:04:31;11.93;;;2.67;;
5801;SDS011;2927;49.366;8.530;2024-01-25T00:06:56;18.27;;;2.27;;
5801;SDS011;2927;49.366;8.530;2024-01-25T00:09:22;11.83;;;2.60;;
5801;SDS011;2927;49.366;8.530;2024-01-25T00:11:47;30.80;;;3.90;;
5801;SDS011;2927;49.366;8.530;2024-01-25T00:14:13;23.77;;;2.90;;
5801;SDS011;2927;49.366;8.530;2024-01-25T00:16:41;15.00;;;2.40;;
5801;SDS011;2927;49.366;8.530;2024-01-25T00:19:07;9.23;;;2.43;;
5801;SDS011;2927;49.366;8.530;2024-01-25T00:21:33;23.37;;;3.40;;
5801;SDS011;2927;49.366;8.530;2024-01-25T00:23:58;20.07;;;2.63;;
5801;SDS011;2927;49.366;8.530;2024-01-25T00:26:24;17.23;;;3.13;;
5801;SDS011;2927;49.366;8.530;2024-01-25T00:28:49;15.50;;;2.80;;
5801;SDS011;2927;49.366;8.530;2024-01-25T00:31:15;7.93;;;1.67;;
5801;SDS011;2927;49.366;8.530;2024-01-25T00:33:40;16.03;;;1.83;;
5801;SDS011;2927;49.366;8.530;2024-01-25T00:36:06;13.90;;;2.83;;
5801;SDS011;2927;49.366;8.530;2024-01-25T00:38:32;12.20;;;2.10;;
5801;SDS011;2927;49.366;8.530;2024-01-25T00:40:58;14.83;;;1.73;;
5801;SDS011;2927;49.366;8.530;2024-01-25T00:43:24;10.80;;;1.80;;
5801;SDS011;2927;49.366;8.530;2024-01-25T00:45:50;9.10;;;1.97;;
5801;SDS011;2927;49.366;8.530;2024-01-25T00:48:16;11.33;;;1.73;;
5801;SDS011;2927;49.366;8.530;2024-01-25T00:50:41;13.47;;;2.47;;
5801;SDS011;2927;49.366;8.530;2024-01-25T00:53:07;17.33;;;2.30;;
5801;SDS011;2927;49.366;8.530;2024-01-25T00:55:33;12.90;;;2.23;;
5801;SDS011;2927;49.366;8.530;2024-01-25T00:57:59;8.97;;;2.20;;
5801;SDS011;2927;49.366;8.530;2024-01-25T01:00:25;18.17;;;2.47;;
5801;SDS011;2927;49.366;8.530;2024-01-25T01:02:51;13.13;;;2.60;;
5801;SDS011;2927;49.366;8.530;2024-01-25T01:05:18;16.97;;;2.40;;
5801;SDS011;2927;49.366;8.530;2024-01-25T01:07:44;23.50;;;2.63;;
5801;SDS011;2927;49.366;8.530;2024-01-25T01:10:10;18.43;;;2.80;;
5801;SDS011;2927;49.366;8.530;2024-01-25T01:12:36;14.37;;;3.33;;
5801;SDS011;2927;49.366;8.530;2024-01-25T01:15:02;26.60;;;2.90;;
5801;SDS011;2927;49.366;8.530;2024-01-25T01:17:28;15.40;;;2.67;;
5801;SDS011;2927;49.366;8.530;2024-01-25T01:19:54;10.87;;;1.77;;
5801;SDS011;2927;49.366;8.530;2024-01-25T01:22:19;15.43;;;2.07;;
5801;SDS011;2927;49.366;8.530;2024-01-25T01:24:45;29.60;;;2.20;;
5801;SDS011;2927;49.366;8.530;2024-01-25T01:27:11;13.07;;;1.93;;
5801;SDS011;2927;49.366;8.530;2024-01-25T01:29:36;12.17;;;2.97;;
5801;SDS011;2927;49.366;8.530;2024-01-25T01:32:02;14.90;;;2.43;;
5801;SDS011;2927;49.366;8.530;2024-01-25T01:34:28;11.67;;;2.50;;
5801;SDS011;2927;49.366;8.530;2024-01-25T01:36:53;12.63;;;2.50;;
5801;SDS011;2927;49.366;8.530;2024-01-25T01:39:19;17.23;;;2.67;;
5801;SDS011;2927;49.366;8.530;2024-01-25T01:41:47;14.93;;;2.70;;
5801;SDS011;2927;49.366;8.530;2024-01-25T01:44:14;11.70;;;2.57;;
5801;SDS011;2927;49.366;8.530;2024-01-25T01:46:39;14.63;;;2.50;;
5801;SDS011;2927;49.366;8.530;2024-01-25T01:49:07;16.30;;;2.87;;
5801;SDS011;2927;49.366;8.530;2024-01-25T01:51:35;20.60;;;2.07;;
5801;SDS011;2927;49.366;8.530;2024-01-25T01:54:02;18.23;;;2.57;;
5801;SDS011;2927;49.366;8.530;2024-01-25T01:56:28;21.70;;;2.60;;
5801;SDS011;2927;49.366;8.530;2024-01-25T01:59:01;15.00;;;3.80;;
5801;SDS011;2927;49.366;8.530;2024-01-25T02:01:30;10.53;;;1.83;;
5801;SDS011;2927;49.366;8.530;2024-01-25T02:03:56;21.10;;;2.70;;
5801;SDS011;2927;49.366;8.530;2024-01-25T02:06:25;11.93;;;2.43;;
5801;SDS011;2927;49.366;8.530;2024-01-25T02:08:51;14.80;;;2.53;;
5801;SDS011;2927;49.366;8.530;2024-01-25T02:11:18;11.13;;;2.00;;
5801;SDS011;2927;49.366;8.530;2024-01-25T02:13:46;16.53;;;3.30;;
5801;SDS011;2927;49.366;8.530;2024-01-25T02:16:12;13.43;;;2.33;;
5801;SDS011;2927;49.366;8.530;2024-01-25T02:18:39;11.67;;;2.10;;
5801;SDS011;2927;49.366;8.530;2024-01-25T02:21:08;10.87;;;2.80;;
5801;SDS011;2927;49.366;8.530;2024-01-25T02:23:34;22.00;;;2.90;;
5801;SDS011;2927;49.366;8.530;2024-01-25T02:25:59;15.13;;;1.90;;
5801;SDS011;2927;49.366;8.530;2024-01-25T02:28:25;15.53;;;3.03;;
5801;SDS011;2927;49.366;8.530;2024-01-25T02:30:50;7.47;;;1.90;;
5801;SDS011;2927;49.366;8.530;2024-01-25T02:33:16;13.27;;;2.17;;
5801;SDS011;2927;49.366;8.530;2024-01-25T02:35:41;15.20;;;2.53;;
5801;SDS011;2927;49.366;8.530;2024-01-25T02:38:07;11.30;;;2.60;;
5801;SDS011;2927;49.366;8.530;2024-01-25T02:40:33;9.10;;;1.57;;
5801;SDS011;2927;49.366;8.530;2024-01-25T02:42:58;10.43;;;2.17;;
5801;SDS011;2927;49.366;8.530;2024-01-25T02:45:24;13.83;;;2.23;;
5801;SDS011;2927;49.366;8.530;2024-01-25T02:47:50;16.73;;;2.30;;
5801;SDS011;2927;49.366;8.530;2024-01-25T02:50:15;11.50;;;2.80;;
5801;SDS011;2927;49.366;8.530;2024-01-25T02:52:41;15.03;;;2.77;;
5801;SDS011;2927;49.366;8.530;2024-01-25T02:55:07;21.00;;;2.43;;
5801;SDS011;2927;49.366;8.530;2024-01-25T02:57:33;23.63;;;2.97;;
5801;SDS011;2927;49.366;8.530;2024-01-25T02:59:59;9.00;;;2.00;;
5801;SDS011;2927;49.366;8.530;2024-01-25T03:02:24;14.87;;;2.40;;
5801;SDS011;2927;49.366;8.530;2024-01-25T03:04:50;12.40;;;2.23;;
5801;SDS011;2927;49.366;8.530;2024-01-25T03:07:16;5.33;;;2.30;;
5801;SDS011;2927;49.366;8.530;2024-01-25T03:09:41;16.40;;;2.07;;
5801;SDS011;2927;49.366;8.530;2024-01-25T03:12:07;11.47;;;2.40;;
5801;SDS011;2927;49.366;8.530;2024-01-25T03:14:32;12.23;;;2.10;;
5801;SDS011;2927;49.366;8.530;2024-01-25T03:16:58;11.63;;;2.03;;
5801;SDS011;2927;49.366;8.530;2024-01-25T03:19:24;9.60;;;1.97;;
5801;SDS011;2927;49.366;8.530;2024-01-25T03:21:51;15.60;;;3.10;;
5801;SDS011;2927;49.366;8.530;2024-01-25T03:24:16;14.57;;;2.40;;
5801;SDS011;2927;49.366;8.530;2024-01-25T03:26:42;12.30;;;2.60;;
5801;SDS011;2927;49.366;8.530;2024-01-25T03:29:07;16.80;;;2.47;;
5801;SDS011;2927;49.366;8.530;2024-01-25T03:31:33;16.30;;;2.20;;
5801;SDS011;2927;49.366;8.530;2024-01-25T03:33:59;8.33;;;2.00;;
5801;SDS011;2927;49.366;8.530;2024-01-25T03:36:25;10.60;;;2.30;;
5801;SDS011;2927;49.366;8.530;2024-01-25T03:38:50;12.57;;;1.90;;
5801;SDS011;2927;49.366;8.530;2024-01-25T03:41:16;15.87;;;1.83;;
5801;SDS011;2927;49.366;8.530;2024-01-25T03:43:41;18.17;;;2.10;;
5801;SDS011;2927;49.366;8.530;2024-01-25T03:46:07;8.90;;;2.50;;
5801;SDS011;2927;49.366;8.530;2024-01-25T03:48:32;13.30;;;1.93;;
5801;SDS011;2927;49.366;8.530;2024-01-25T03:50:58;12.03;;;2.87;;
5801;SDS011;2927;49.366;8.530;2024-01-25T03:53:23;15.23;;;2.87;;
5801;SDS011;2927;49.366;8.530;2024-01-25T03:55:49;11.80;;;1.60;;
5801;SDS011;2927;49.366;8.530;2024-01-25T03:58:15;10.90;;;2.10;;
5801;SDS011;2927;49.366;8.530;2024-01-25T04:00:43;9.10;;;2.50;;
5801;SDS011;2927;49.366;8.530;2024-01-25T04:03:11;8.17;;;1.93;;
5801;SDS011;2927;49.366;8.530;2024-01-25T04:05:37;14.43;;;2.20;;
5801;SDS011;2927;49.366;8.530;2024-01-25T04:08:04;18.20;;;2.87;;
5801;SDS011;2927;49.366;8.530;2024-01-25T04:10:30;9.93;;;2.77;;
5801;SDS011;2927;49.366;8.530;2024-01-25T04:12:55;13.90;;;2.10;;
5801;SDS011;2927;49.366;8.530;2024-01-25T04:15:21;17.83;;;2.27;;
5801;SDS011;2927;49.366;8.530;2024-01-25T04:17:46;7.27;;;1.87;;
5801;SDS011;2927;49.366;8.530;2024-01-25T04:20:12;10.97;;;2.20;;
5801;SDS011;2927;49.366;8.530;2024-01-25T04:22:38;8.40;;;2.23;;
5801;SDS011;2927;49.366;8.530;2024-01-25T04:25:03;12.67;;;3.13;;
5801;SDS011;2927;49.366;8.530;2024-01-25T04:27:29;6.10;;;2.40;;
5801;SDS011;2927;49.366;8.530;2024-01-25T04:29:55;13.33;;;3.30;;
5801;SDS011;2927;49.366;8.530;2024-01-25T04:32:21;6.30;;;2.20;;
5801;SDS011;2927;49.366;8.530;2024-01-25T04:34:46;15.97;;;3.47;;
5801;SDS011;2927;49.366;8.530;2024-01-25T04:37:12;17.37;;;2.07;;
5801;SDS011;2927;49.366;8.530;2024-01-25T04:39:39;12.43;;;2.23;;
5801;SDS011;2927;49.366;8.530;2024-01-25T04:42:04;7.73;;;2.13;;
5801;SDS011;2927;49.366;8.530;2024-01-25T04:44:30;9.67;;;2.03;;
5801;SDS011;2927;49.366;8.530;2024-01-25T04:46:56;24.23;;;2.87;;
5801;SDS011;2927;49.366;8.530;2024-01-25T04:49:21;10.27;;;2.20;;
5801;SDS011;2927;49.366;8.530;2024-01-25T04:51:47;15.37;;;2.30;;
5801;SDS011;2927;49.366;8.530;2024-01-25T04:54:12;13.73;;;2.23;;
5801;SDS011;2927;49.366;8.530;2024-01-25T04:56:40;8.80;;;2.67;;
5801;SDS011;2927;49.366;8.530;2024-01-25T04:59:09;23.23;;;3.20;;
5801;SDS011;2927;49.366;8.530;2024-01-25T05:01:34;12.27;;;1.70;;
5801;SDS011;2927;49.366;8.530;2024-01-25T05:04:00;10.73;;;2.00;;
5801;SDS011;2927;49.366;8.530;2024-01-25T05:06:25;18.40;;;2.73;;
5801;SDS011;2927;49.366;8.530;2024-01-25T05:08:51;17.83;;;2.80;;
5801;SDS011;2927;49.366;8.530;2024-01-25T05:11:17;15.83;;;2.63;;
5801;SDS011;2927;49.366;8.530;2024-01-25T05:13:42;19.07;;;2.10;;
5801;SDS011;2927;49.366;8.530;2024-01-25T05:16:08;17.87;;;2.33;;
5801;SDS011;2927;49.366;8.530;2024-01-25T05:18:33;19.23;;;2.20;;
5801;SDS011;2927;49.366;8.530;2024-01-25T05:20:59;12.90;;;2.80;;
5801;SDS011;2927;49.366;8.530;2024-01-25T05:23:25;14.90;;;2.73;;
5801;SDS011;2927;49.366;8.530;2024-01-25T05:25:51;13.13;;;2.17;;
5801;SDS011;2927;49.366;8.530;2024-01-25T05:28:16;14.07;;;2.97;;
5801;SDS011;2927;49.366;8.530;2024-01-25T05:30:42;15.30;;;3.13;;
5801;SDS011;2927;49.366;8.530;2024-01-25T05:33:07;23.43;;;2.60;;
5801;SDS011;2927;49.366;8.530;2024-01-25T05:35:33;13.50;;;3.00;;
5801;SDS011;2927;49.366;8.530;2024-01-25T05:37:59;13.93;;;2.97;;
5801;SDS011;2927;49.366;8.530;2024-01-25T05:40:25;12.00;;;2.23;;
5801;SDS011;2927;49.366;8.530;2024-01-25T05:42:51;12.50;;;2.57;;
5801;SDS011;2927;49.366;8.530;2024-01-25T05:45:16;20.43;;;2.57;;
5801;SDS011;2927;49.366;8.530;2024-01-25T05:47:44;16.17;;;2.63;;
5801;SDS011;2927;49.366;8.530;2024-01-25T05:50:10;8.63;;;2.30;;
5801;SDS011;2927;49.366;8.530;2024-01-25T05:52:36;10.97;;;2.97;;
5801;SDS011;2927;49.366;8.530;2024-01-25T05:55:02;12.53;;;2.27;;
5801;SDS011;2927;49.366;8.530;2024-01-25T05:57:30;12.53;;;2.90;;
5801;SDS011;2927;49.366;8.530;2024-01-25T05:59:56;12.47;;;2.57;;
5801;SDS011;2927;49.366;8.530;2024-01-25T06:02:21;15.63;;;2.17;;
5801;SDS011;2927;49.366;8.530;2024-01-25T06:04:47;15.13;;;2.90;;
5801;SDS011;2927;49.366;8.530;2024-01-25T06:07:12;8.90;;;1.93;;
5801;SDS011;2927;49.366;8.530;2024-01-25T06:09:38;14.47;;;2.43;;
5801;SDS011;2927;49.366;8.530;2024-01-25T06:12:03;17.63;;;2.60;;
5801;SDS011;2927;49.366;8.530;2024-01-25T06:14:29;8.80;;;1.90;;
5801;SDS011;2927;49.366;8.530;2024-01-25T06:16:55;14.00;;;2.70;;
5801;SDS011;2927;49.366;8.530;2024-01-25T06:19:21;25.03;;;2.80;;
5801;SDS011;2927;49.366;8.530;2024-01-25T06:21:47;13.60;;;2.90;;
5801;SDS011;2927;49.366;8.530;2024-01-25T06:24:12;8.73;;;2.10;;
5801;SDS011;2927;49.366;8.530;2024-01-25T06:26:38;15.00;;;2.27;;
5801;SDS011;2927;49.366;8.530;2024-01-25T06:29:04;17.47;;;3.20;;
5801;SDS011;2927;49.366;8.530;2024-01-25T06:31:29;13.87;;;2.60;;
5801;SDS011;2927;49.366;8.530;2024-01-25T06:33:55;30.40;;;4.90;;
5801;SDS011;2927;49.366;8.530;2024-01-25T06:36:20;23.00;;;2.83;;
5801;SDS011;2927;49.366;8.530;2024-01-25T06:38:46;22.00;;;4.50;;
5801;SDS011;2927;49.366;8.530;2024-01-25T06:41:12;17.70;;;3.10;;
5801;SDS011;2927;49.366;8.530;2024-01-25T06:43:38;16.80;;;2.77;;
5801;SDS011;2927;49.366;8.530;2024-01-25T06:46:05;25.10;;;3.37;;
5801;SDS011;2927;49.366;8.530;2024-01-25T06:48:31;12.60;;;2.40;;
5801;SDS011;2927;49.366;8.530;2024-01-25T06:50:57;6.50;;;2.00;;
5801;SDS011;2927;49.366;8.530;2024-01-25T06:53:22;13.20;;;2.80;;
5801;SDS011;2927;49.366;8.530;2024-01-25T06:55:48;13.03;;;2.27;;
5801;SDS011;2927;49.366;8.530;2024-01-25T06:58:13;12.93;;;3.80;;
5801;SDS011;2927;49.366;8.530;2024-01-25T07:00:39;11.83;;;1.93;;
5801;SDS011;2927;49.366;8.530;2024-01-25T07:03:07;19.33;;;2.53;;
5801;SDS011;2927;49.366;8.530;2024-01-25T07:05:32;21.07;;;2.80;;
5801;SDS011;2927;49.366;8.530;2024-01-25T07:08:00;24.60;;;3.47;;
5801;SDS011;2927;49.366;8.530;2024-01-25T07:10:26;14.20;;;2.63;;
5801;SDS011;2927;49.366;8.530;2024-01-25T07:12:52;19.90;;;3.10;;
5801;SDS011;2927;49.366;8.530;2024-01-25T07:15:18;24.03;;;3.93;;
5801;SDS011;2927;49.366;8.530;2024-01-25T07:17:44;21.43;;;3.10;;
5801;SDS011;2927;49.366;8.530;2024-01-25T07:20:10;19.93;;;3.20;;
5801;SDS011;2927;49.366;8.530;2024-01-25T07:22:36;13.40;;;2.70;;
5801;SDS011;2927;49.366;8.530;2024-01-25T07:25:02;18.77;;;2.83;;
5801;SDS011;2927;49.366;8.530;2024-01-25T07:27:27;11.13;;;2.30;;
5801;SDS011;2927;49.366;8.530;2024-01-25T07:29:53;16.20;;;2.57;;
5801;SDS011;2927;49.366;8.530;2024-01-25T07:32:19;9.70;;;2.10;;
5801;SDS011;2927;49.366;8.530;2024-01-25T07:34:45;10.70;;;2.70;;
5801;SDS011;2927;49.366;8.530;2024-01-25T07:37:11;18.50;;;3.83;;
5801;SDS011;2927;49.366;8.530;2024-01-25T07:39:38;15.70;;;3.10;;
5801;SDS011;2927;49.366;8.530;2024-01-25T07:42:03;7.50;;;4.23;;
5801;SDS011;2927;49.366;8.530;2024-01-25T07:44:29;19.57;;;4.00;;
5801;SDS011;2927;49.366;8.530;2024-01-25T07:46:55;20.23;;;5.37;;
5801;SDS011;2927;49.366;8.530;2024-01-25T07:49:20;22.67;;;8.23;;
5801;SDS011;2927;49.366;8.530;2024-01-25T07:51:46;24.27;;;6.67;;
5801;SDS011;2927;49.366;8.530;2024-01-25T07:54:12;19.40;;;6.63;;
5801;SDS011;2927;49.366;8.530;2024-01-25T07:56:37;26.30;;;4.90;;
5801;SDS011;2927;49.366;8.530;2024-01-25T07:59:03;24.53;;;6.77;;
5801;SDS011;2927;49.366;8.530;2024-01-25T08:01:28;23.33;;;5.27;;
5801;SDS011;2927;49.366;8.530;2024-01-25T08:03:54;22.13;;;4.30;;
5801;SDS011;2927;49.366;8.530;2024-01-25T08:06:20;19.37;;;4.70;;
5801;SDS011;2927;49.366;8.530;2024-01-25T08:08:46;12.63;;;4.67;;
5801;SDS011;2927;49.366;8.530;2024-01-25T08:11:12;12.93;;;3.80;;
5801;SDS011;2927;49.366;8.530;2024-01-25T08:13:37;19.30;;;5.03;;
5801;SDS011;2927;49.366;8.530;2024-01-25T08:16:03;14.97;;;4.90;;
5801;SDS011;2927;49.366;8.530;2024-01-25T08:18:29;20.83;;;3.90;;
5801;SDS011;2927;49.366;8.530;2024-01-25T08:20:55;19.63;;;4.40;;
5801;SDS011;2927;49.366;8.530;2024-01-25T08:23:21;20.03;;;4.00;;
5801;SDS011;2927;49.366;8.530;2024-01-25T08:25:46;19.00;;;3.87;;
5801;SDS011;2927;49.366;8.530;2024-01-25T08:28:12;18.70;;;4.97;;
5801;SDS011;2927;49.366;8.530;2024-01-25T08:30:37;19.63;;;4.33;;
5801;SDS011;2927;49.366;8.530;2024-01-25T08:33:03;12.50;;;4.27;;
5801;SDS011;2927;49.366;8.530;2024-01-25T08:35:29;15.30;;;4.60;;
5801;SDS011;2927;49.366;8.530;2024-01-25T08:37:58;15.20;;;3.50;;
5801;SDS011;2927;49.366;8.530;2024-01-25T08:40:23;14.67;;;3.13;;
5801;SDS011;2927;49.366;8.530;2024-01-25T08:42:49;20.93;;;3.27;;
5801;SDS011;2927;49.366;8.530;2024-01-25T08:45:14;12.60;;;3.47;;
5801;SDS011;2927;49.366;8.530;2024-01-25T08:47:40;15.97;;;2.90;;
5801;SDS011;2927;49.366;8.530;2024-01-25T08:50:05;14.73;;;3.27;;
5801;SDS011;2927;49.366;8.530;2024-01-25T08:52:35;14.10;;;2.70;;
5801;SDS011;2927;49.366;8.530;2024-01-25T08:55:02;18.10;;;3.53;;
5801;SDS011;2927;49.366;8.530;2024-01-25T08:57:29;14.73;;;3.90;;
5801;SDS011;2927;49.366;8.530;2024-01-25T08:59:55;12.50;;;3.23;;
5801;SDS011;2927;49.366;8.530;2024-01-25T09:02:23;21.90;;;4.00;;
5801;SDS011;2927;49.366;8.530;2024-01-25T09:04:52;16.53;;;3.93;;
5801;SDS011;2927;49.366;8.530;2024-01-25T09:07:19;12.47;;;4.07;;
5801;SDS011;2927;49.366;8.530;2024-01-25T09:09:44;14.20;;;3.53;;
5801;SDS011;2927;49.366;8.530;2024-01-25T09:12:10;14.33;;;3.13;;
5801;SDS011;2927;49.366;8.530;2024-01-25T09:14:37;15.27;;;3.73;;
5801;SDS011;2927;49.366;8.530;2024-01-25T09:17:03;15.00;;;3.57;;
5801;SDS011;2927;49.366;8.530;2024-01-25T09:19:29;8.40;;;2.90;;
5801;SDS011;2927;49.366;8.530;2024-01-25T09:21:55;16.87;;;3.90;;
5801;SDS011;2927;49.366;8.530;2024-01-25T09:24:23;14.13;;;3.13;;
5801;SDS011;2927;49.366;8.530;2024-01-25T09:26:48;10.30;;;3.30;;
5801;SDS011;2927;49.366;8.530;2024-01-25T09:29:14;12.70;;;3.70;;
5801;SDS011;2927;49.366;8.530;2024-01-25T09:31:39;15.50;;;4.10;;
5801;SDS011;2927;49.366;8.530;2024-01-25T09:34:05;18.90;;;3.50;;
5801;SDS011;2927;49.366;8.530;2024-01-25T09:36:31;10.23;;;2.93;;
5801;SDS011;2927;49.366;8.530;2024-01-25T09:38:57;18.13;;;3.73;;
5801;SDS011;2927;49.366;8.530;2024-01-25T09:41:22;11.67;;;3.07;;
5801;SDS011;2927;49.366;8.530;2024-01-25T09:43:48;14.83;;;3.60;;
5801;SDS011;2927;49.366;8.530;2024-01-25T09:46:14;9.30;;;2.90;;
5801;SDS011;2927;49.366;8.530;2024-01-25T09:48:41;7.10;;;3.23;;
5801;SDS011;2927;49.366;8.530;2024-01-25T09:51:09;22.47;;;3.60;;
5801;SDS011;2927;49.366;8.530;2024-01-25T09:53:36;24.67;;;4.13;;
5801;SDS011;2927;49.366;8.530;2024-01-25T09:56:05;13.87;;;4.30;;
5801;SDS011;2927;49.366;8.530;2024-01-25T09:58:39;16.47;;;4.03;;
5801;SDS011;2927;49.366;8.530;2024-01-25T10:01:10;19.23;;;3.83;;
5801;SDS011;2927;49.366;8.530;2024-01-25T10:03:37;11.23;;;2.60;;
5801;SDS011;2927;49.366;8.530;2024-01-25T10:06:12;18.40;;;4.60;;
5801;SDS011;2927;49.366;8.530;2024-01-25T10:08:38;24.93;;;4.20;;
5801;SDS011;2927;49.366;8.530;2024-01-25T10:11:04;17.30;;;4.13;;
5801;SDS011;2927;49.366;8.530;2024-01-25T10:13:30;25.57;;;4.30;;
5801;SDS011;2927;49.366;8.530;2024-01-25T10:15:57;23.87;;;3.30;;
5801;SDS011;2927;49.366;8.530;2024-01-25T10:18:23;14.93;;;3.33;;
5801;SDS011;2927;49.366;8.530;2024-01-25T10:20:50;21.40;;;5.13;;
5801;SDS011;2927;49.366;8.530;2024-01-25T10:23:20;25.77;;;2.90;;
5801;SDS011;2927;49.366;8.530;2024-01-25T10:25:47;17.03;;;3.30;;
5801;SDS011;2927;49.366;8.530;2024-01-25T10:28:12;21.60;;;3.83;;
5801;SDS011;2927;49.366;8.530;2024-01-25T10:30:38;16.97;;;3.33;;
5801;SDS011;2927;49.366;8.530;2024-01-25T10:33:03;21.70;;;3.53;;
5801;SDS011;2927;49.366;8.530;2024-01-25T10:35:29;22.57;;;3.80;;
5801;SDS011;2927;49.366;8.530;2024-01-25T10:37:56;26.13;;;3.50;;
5801;SDS011;2927;49.366;8.530;2024-01-25T10:40:22;15.87;;;4.13;;
5801;SDS011;2927;49.366;8.530;2024-01-25T10:42:48;17.70;;;2.60;;
5801;SDS011;2927;49.366;8.530;2024-01-25T10:45:14;9.83;;;2.33;;
5801;SDS011;2927;49.366;8.530;2024-01-25T10:47:40;17.13;;;3.37;;
5801;SDS011;2927;49.366;8.530;2024-01-25T10:50:09;19.93;;;3.37;;
5801;SDS011;2927;49.366;8.530;2024-01-25T10:52:37;17.27;;;3.20;;
5801;SDS011;2927;49.366;8.530;2024-01-25T10:55:05;20.67;;;3.50;;
5801;SDS011;2927;49.366;8.530;2024-01-25T10:57:36;11.40;;;2.43;;
5801;SDS011;2927;49.366;8.530;2024-01-25T11:00:09;28.37;;;3.10;;
5801;SDS011;2927;49.366;8.530;2024-01-25T11:02:36;29.67;;;3.70;;
5801;SDS011;2927;49.366;8.530;2024-01-25T11:05:05;20.73;;;3.90;;
5801;SDS011;2927;49.366;8.530;2024-01-25T11:07:46;18.07;;;3.30;;
5801;SDS011;2927;49.366;8.530;2024-01-25T11:10:14;15.17;;;3.00;;
5801;SDS011;2927;49.366;8.530;2024-01-25T11:12:56;12.83;;;2.97;;
5801;SDS011;2927;49.366;8.530;2024-01-25T11:15:22;14.23;;;2.80;;
5801;SDS011;2927;49.366;8.530;2024-01-25T11:17:55;12.37;;;3.37;;
5801;SDS011;2927;49.366;8.530;2024-01-25T11:20:24;9.73;;;2.20;;
5801;SDS011;2927;49.366;8.530;2024-01-25T11:23:09;19.53;;;3.10;;
5801;SDS011;2927;49.366;8.530;2024-01-25T11:25:36;16.17;;;3.37;;
5801;SDS011;2927;49.366;8.530;2024-01-25T11:28:03;12.53;;;3.00;;
5801;SDS011;2927;49.366;8.530;2024-01-25T11:30:30;18.33;;;3.57;;
5801;SDS011;2927;49.366;8.530;2024-01-25T11:32:58;16.90;;;3.30;;
5801;SDS011;2927;49.366;8.530;2024-01-25T11:35:24;12.67;;;3.87;;
5801;SDS011;2927;49.366;8.530;2024-01-25T11:37:50;14.53;;;3.07;;
5801;SDS011;2927;49.366;8.530;2024-01-25T11:40:17;8.00;;;3.00;;
5801;SDS011;2927;49.366;8.530;2024-01-25T11:42:43;14.60;;;3.43;;
5801;SDS011;2927;49.366;8.530;2024-01-25T11:45:12;9.83;;;3.40;;
5801;SDS011;2927;49.366;8.530;2024-01-25T11:47:39;11.00;;;2.37;;
5801;SDS011;2927;49.366;8.530;2024-01-25T11:50:06;19.20;;;3.50;;
5801;SDS011;2927;49.366;8.530;2024-01-25T11:52:32;13.97;;;2.80;;
5801;SDS011;2927;49.366;8.530;2024-01-25T11:55:01;22.33;;;3.80;;
5801;SDS011;2927;49.366;8.530;2024-01-25T11:57:30;15.87;;;2.63;;
5801;SDS011;2927;49.366;8.530;2024-01-25T12:00:07;18.07;;;3.30;;
5801;SDS011;2927;49.366;8.530;2024-01-25T12:02:38;17.67;;;3.80;;
5801;SDS011;2927;49.366;8.530;2024-01-25T12:05:05;18.80;;;2.77;;
5801;SDS011;2927;49.366;8.530;2024-01-25T12:07:31;7.00;;;1.83;;
5801;SDS011;2927;49.366;8.530;2024-01-25T12:10:04;12.57;;;2.70;;
5801;SDS011;2927;49.366;8.530;2024-01-25T12:12:35;14.87;;;2.23;;
5801;SDS011;2927;49.366;8.530;2024-01-25T12:15:04;15.23;;;2.60;;
5801;SDS011;2927;49.366;8.530;2024-01-25T12:17:30;25.43;;;3.10;;
5801;SDS011;2927;49.366;8.530;2024-01-25T12:19:56;18.33;;;3.50;;
5801;SDS011;2927;49.366;8.530;2024-01-25T12:22:23;12.63;;;3.47;;
5801;SDS011;2927;49.366;8.530;2024-01-25T12:24:52;9.43;;;2.10;;
5801;SDS011;2927;49.366;8.530;2024-01-25T12:27:22;25.83;;;3.10;;
5801;SDS011;2927;49.366;8.530;2024-01-25T12:29:53;15.57;;;2.83;;
5801;SDS011;2927;49.366;8.530;2024-01-25T12:32:19;13.80;;;3.20;;
5801;SDS011;2927;49.366;8.530;2024-01-25T12:34:58;27.63;;;3.20;;
5801;SDS011;2927;49.366;8.530;2024-01-25T12:37:28;13.67;;;3.20;;
5801;SDS011;2927;49.366;8.530;2024-01-25T12:39:54;13.47;;;2.77;;
5801;SDS011;2927;49.366;8.530;2024-01-25T12:42:20;7.70;;;1.90;;
5801;SDS011;2927;49.366;8.530;2024-01-25T12:44:46;15.80;;;3.60;;
5801;SDS011;2927;49.366;8.530;2024-01-25T12:47:13;14.80;;;4.30;;
5801;SDS011;2927;49.366;8.530;2024-01-25T12:49:42;19.57;;;3.17;;
5801;SDS011;2927;49.366;8.530;2024-01-25T12:52:09;20.67;;;3.30;;
5801;SDS011;2927;49.366;8.530;2024-01-25T12:54:38;9.13;;;2.43;;
5801;SDS011;2927;49.366;8.530;2024-01-25T12:57:05;13.67;;;2.50;;
5801;SDS011;2927;49.366;8.530;2024-01-25T12:59:31;17.10;;;3.60;;
5801;SDS011;2927;49.366;8.530;2024-01-25T13:02:01;29.63;;;4.13;;
5801;SDS011;2927;49.366;8.530;2024-01-25T13:04:27;14.90;;;3.50;;
5801;SDS011;2927;49.366;8.530;2024-01-25T13:06:53;14.63;;;2.53;;
5801;SDS011;2927;49.366;8.530;2024-01-25T13:09:20;16.53;;;3.33;;
5801;SDS011;2927;49.366;8.530;2024-01-25T13:11:47;18.73;;;3.13;;
5801;SDS011;2927;49.366;8.530;2024-01-25T13:14:12;15.00;;;2.93;;
5801;SDS011;2927;49.366;8.530;2024-01-25T13:16:38;14.87;;;2.67;;
5801;SDS011;2927;49.366;8.530;2024-01-25T13:19:04;19.60;;;4.00;;
5801;SDS011;2927;49.366;8.530;2024-01-25T13:21:29;12.40;;;3.00;;
5801;SDS011;2927;49.366;8.530;2024-01-25T13:23:55;10.40;;;2.73;;
5801;SDS011;2927;49.366;8.530;2024-01-25T13:26:21;8.03;;;2.23;;
5801;SDS011;2927;49.366;8.530;2024-01-25T13:28:46;13.67;;;2.80;;
5801;SDS011;2927;49.366;8.530;2024-01-25T13:31:12;11.57;;;2.97;;
5801;SDS011;2927;49.366;8.530;2024-01-25T13:33:38;18.53;;;3.73;;
5801;SDS011;2927;49.366;8.530;2024-01-25T13:36:03;14.30;;;2.53;;
5801;SDS011;2927;49.366;8.530;2024-01-25T13:38:33;14.70;;;3.00;;
5801;SDS011;2927;49.366;8.530;2024-01-25T13:40:59;14.97;;;3.10;;
5801;SDS011;2927;49.366;8.530;2024-01-25T13:43:25;12.37;;;2.20;;
5801;SDS011;2927;49.366;8.530;2024-01-25T13:45:50;18.50;;;3.10;;
5801;SDS011;2927;49.366;8.530;2024-01-25T13:48:16;14.10;;;2.23;;
5801;SDS011;2927;49.366;8.530;2024-01-25T13:50:43;13.00;;;2.97;;
5801;SDS011;2927;49.366;8.530;2024-01-25T13:53:09;12.87;;;1.97;;
5801;SDS011;2927;49.366;8.530;2024-01-25T13:55:35;9.73;;;3.00;;
5801;SDS011;2927;49.366;8.530;2024-01-25T13:58:01;15.23;;;2.10;;
5801;SDS011;2927;49.366;8.530;2024-01-25T14:00:26;16.57;;;2.57;;
5801;SDS011;2927;49.366;8.530;2024-01-25T14:02:52;8.37;;;2.13;;
5801;SDS011;2927;49.366;8.530;2024-01-25T14:05:19;5.90;;;2.03;;
5801;SDS011;2927;49.366;8.530;2024-01-25T14:07:44;12.10;;;2.00;;
5801;SDS011;2927;49.366;8.530;2024-01-25T14:10:10;17.70;;;3.57;;
5801;SDS011;2927;49.366;8.530;2024-01-25T14:12:35;12.10;;;2.10;;
5801;SDS011;2927;49.366;8.530;2024-01-25T14:15:01;16.80;;;3.00;;
5801;SDS011;2927;49.366;8.530;2024-01-25T14:17:27;9.80;;;2.63;;
5801;SDS011;2927;49.366;8.530;2024-01-25T14:19:53;8.23;;;2.23;;
5801;SDS011;2927;49.366;8.530;2024-01-25T14:22:19;12.60;;;2.80;;
5801;SDS011;2927;49.366;8.530;2024-01-25T14:24:44;8.60;;;2.17;;
5801;SDS011;2927;49.366;8.530;2024-01-25T14:27:11;10.27;;;2.80;;
5801;SDS011;2927;49.366;8.530;2024-01-25T14:29:36;10.47;;;3.10;;
5801;SDS011;2927;49.366;8.530;2024-01-25T14:32:02;16.47;;;3.43;;
5801;SDS011;2927;49.366;8.530;2024-01-25T14:34:28;8.20;;;2.60;;
5801;SDS011;2927;49.366;8.530;2024-01-25T14:36:53;16.40;;;3.40;;
5801;SDS011;2927;49.366;8.530;2024-01-25T14:39:19;9.77;;;2.43;;
5801;SDS011;2927;49.366;8.530;2024-01-25T14:41:45;18.80;;;3.73;;
5801;SDS011;2927;49.366;8.530;2024-01-25T14:44:11;13.07;;;2.83;;
5801;SDS011;2927;49.366;8.530;2024-01-25T14:46:37;12.37;;;3.17;;
5801;SDS011;2927;49.366;8.530;2024-01-25T14:49:06;15.20;;;3.30;;
5801;SDS011;2927;49.366;8.530;2024-01-25T14:51:31;15.97;;;3.20;;
5801;SDS011;2927;49.366;8.530;2024-01-25T14:53:57;15.73;;;3.30;;
5801;SDS011;2927;49.366;8.530;2024-01-25T14:56:22;21.33;;;3.30;;
5801;SDS011;2927;49.366;8.530;2024-01-25T14:58:48;15.37;;;3.93;;